Kezdőlap
METAR-TAF:

METAR-TAF

Repülőterek :

Csengtu, Kína

földrajzi szélesség: 30-40N, földrajzi hosszúság: 104-01E, magasság: 508 m

Jelenlegi meteorológiai megfigyelések

A jelentés 1 órával és 9 perccel ezelõtt készült, 13:00 UTC
Nyugat-délnyugati szél 6 kt
Hőmérséklet 17°C
Páratartalom 82%
Légköri nyomás 1022 hPa
Látótávolság 10 km, vagy több
felhőtlen 1500 m magasságban, és nincs gomolyfelhõ

METAR: ZUUU 211300Z 24003MPS CAVOK 17/14 Q1022 NOSIG

Idő: 22:09 (14:09 UTC)

Előrejelzés

A jelentés 5 órával és 59 perccel ezelõtt készült, 08:10 UTC
Az előrejelzés 21-én 12 óra UTC és 22-én 12 óra UTC között érvényes
Észak-északkeleti szél 6 kt
Látótávolság: 5000 m
Szórványos felhőzet 5000 lábon
Párásság

TAF: ZUUU 210810Z 2112/2212 02003MPS 5000 BR SCT050 TX20/2207Z TN13/2122Z

Meteorológiai megfigyelések és előrejelzések több, mint 4000 repülőtéren (METAR és TAF jelentéseket).

A térképen piros és sárga pontok jelzik az elérhető meteorológiai állomásokat.

Mozgassa az egeret a pont fölött, hogy megjelenjen az állomás neve.

Azután kattintson az időjárási megfigyelések és előrejelzések megtekintéséhez.

A térkép megváltoztatása: kattintson a fekete keresztel jelölt zöld gombra ráközelítéshez, a vonallal jelölt zöld gombra távolításhoz, vagy a zöld nyilakra a szomszédos térképek eléréséhez.


METAR-TAF: